createdAt,value
2018-04-28T00:00:10.229Z,12.40
2018-04-28T00:02:37.753Z,12.40
2018-04-28T00:05:05.303Z,12.40
2018-04-28T00:07:32.838Z,12.40
2018-04-28T00:10:00.349Z,12.40
2018-04-28T00:12:27.880Z,12.40
2018-04-28T00:14:55.386Z,12.40
2018-04-28T00:17:23.381Z,12.40
2018-04-28T00:19:54.297Z,12.40
2018-04-28T00:22:23.457Z,12.30
2018-04-28T00:24:50.964Z,12.30
2018-04-28T00:27:21.228Z,12.30
2018-04-28T00:29:49.645Z,12.30
2018-04-28T00:32:17.146Z,12.30
2018-04-28T00:34:54.566Z,12.20
2018-04-28T00:37:22.077Z,12.20
2018-04-28T00:39:57.294Z,12.20
2018-04-28T00:42:30.712Z,12.20
2018-04-28T00:44:58.242Z,12.20
2018-04-28T00:47:25.747Z,12.20
2018-04-28T00:49:57.936Z,12.20
2018-04-28T00:52:27.137Z,12.20
2018-04-28T00:55:22.680Z,12.20
2018-04-28T00:58:00.062Z,12.20
2018-04-28T01:00:51.061Z,12.20
2018-04-28T01:03:23.366Z,12.20
2018-04-28T01:05:50.890Z,12.10
2018-04-28T01:08:26.733Z,12.10
2018-04-28T01:10:57.005Z,12.10
2018-04-28T01:13:24.519Z,12.00
2018-04-28T01:15:52.050Z,12.00
2018-04-28T01:18:24.630Z,11.90
2018-04-28T01:21:07.142Z,11.90
2018-04-28T01:23:39.489Z,11.90
2018-04-28T01:26:27.849Z,11.90
2018-04-28T01:28:56.214Z,11.90
2018-04-28T01:31:23.750Z,11.90
2018-04-28T01:33:58.628Z,11.80
2018-04-28T01:36:52.746Z,11.80
2018-04-28T01:39:45.038Z,11.80
2018-04-28T01:45:08.305Z,11.70
2018-04-28T01:47:53.658Z,11.20
2018-04-28T01:50:21.093Z,10.90
2018-04-28T01:52:48.698Z,10.80
2018-04-28T01:55:17.145Z,10.90
2018-04-28T01:57:50.613Z,11.00
2018-04-28T02:03:39.355Z,11.00
2018-04-28T02:06:13.866Z,11.00
2018-04-28T02:08:42.135Z,11.00
2018-04-28T02:11:27.519Z,11.00
2018-04-28T02:14:01.642Z,10.90
2018-04-28T02:16:30.973Z,10.90
2018-04-28T02:19:01.321Z,10.90
2018-04-28T02:21:40.417Z,10.90
2018-04-28T02:27:17.387Z,10.90
2018-04-28T02:30:01.684Z,10.90
2018-04-28T02:32:29.927Z,10.90
2018-04-28T02:35:06.557Z,10.90
2018-04-28T02:37:44.696Z,10.90
2018-04-28T02:43:14.544Z,10.80
2018-04-28T02:45:47.968Z,10.80
2018-04-28T02:48:51.089Z,10.70
2018-04-28T02:51:30.289Z,10.70
2018-04-28T02:54:04.431Z,10.70
2018-04-28T02:56:40.735Z,10.70
2018-04-28T02:59:08.650Z,10.70
2018-04-28T03:04:39.533Z,10.70
2018-04-28T03:07:36.645Z,10.60
2018-04-28T03:10:29.685Z,10.60
2018-04-28T03:12:57.332Z,10.60
2018-04-28T03:15:24.999Z,10.50
2018-04-28T03:17:54.035Z,10.40
2018-04-28T03:20:23.116Z,10.40
2018-04-28T03:22:54.165Z,10.30
2018-04-28T03:28:32.018Z,10.40
2018-04-28T03:31:07.297Z,10.30
2018-04-28T03:33:49.870Z,10.30
2018-04-28T03:36:20.337Z,10.30
2018-04-28T03:41:56.656Z,10.20
2018-04-28T03:44:36.837Z,10.10
2018-04-28T03:47:07.759Z,10.10
2018-04-28T03:49:36.117Z,10.00
2018-04-28T03:52:13.341Z,10.00
2018-04-28T03:54:40.880Z,10.00
2018-04-28T03:57:27.889Z,10.00
2018-04-28T04:00:07.189Z,10.00
2018-04-28T04:02:46.401Z,10.00
2018-04-28T04:05:33.561Z,9.90
2018-04-28T04:08:16.450Z,10.00
2018-04-28T04:11:03.393Z,9.90
2018-04-28T04:13:36.669Z,9.90
2018-04-28T04:16:11.714Z,9.80
2018-04-28T04:18:43.637Z,9.90
2018-04-28T04:21:34.376Z,10.00
2018-04-28T04:24:07.629Z,10.00
2018-04-28T04:29:42.725Z,9.90
2018-04-28T04:32:11.293Z,9.90
2018-04-28T04:34:54.418Z,9.80
2018-04-28T04:37:24.789Z,9.80
2018-04-28T04:39:53.216Z,9.90
2018-04-28T04:42:20.729Z,9.90
2018-04-28T04:44:50.801Z,9.90
2018-04-28T04:53:32.168Z,10.10
2018-04-28T04:56:10.744Z,10.20
2018-04-28T04:58:58.905Z,10.20
2018-04-28T05:01:33.377Z,10.40
2018-04-28T05:04:08.741Z,10.50
2018-04-28T05:09:38.029Z,10.80
2018-04-28T05:12:17.450Z,10.90
2018-04-28T05:14:54.720Z,11.00
2018-04-28T05:17:35.897Z,11.20
2018-04-28T05:20:12.320Z,11.30
2018-04-28T05:22:43.709Z,11.50
2018-04-28T05:25:32.739Z,11.70
2018-04-28T05:28:09.397Z,12.00
2018-04-28T05:30:38.430Z,12.00
2018-04-28T05:33:17.833Z,12.30
2018-04-28T05:38:56.317Z,12.70
2018-04-28T05:41:35.813Z,12.90
2018-04-28T05:44:12.742Z,13.10
2018-04-28T05:46:59.648Z,13.30
2018-04-28T05:49:45.708Z,13.40
2018-04-28T05:52:29.745Z,13.70
2018-04-28T05:55:13.102Z,14.10
2018-04-28T05:58:01.465Z,14.20
2018-04-28T06:00:32.400Z,14.30
2018-04-28T06:03:11.980Z,14.60
2018-04-28T06:05:51.313Z,14.90
2018-04-28T06:08:31.672Z,15.50
2018-04-28T06:11:20.022Z,16.20
2018-04-28T06:13:57.310Z,17.20
2018-04-28T06:16:28.865Z,17.70
2018-04-28T06:19:00.080Z,18.00
2018-04-28T06:21:27.533Z,19.00
2018-04-28T06:23:55.456Z,21.10
2018-04-28T06:26:22.960Z,21.10
2018-04-28T06:28:50.469Z,21.90
2018-04-28T06:31:18.002Z,22.70
2018-04-28T06:33:45.509Z,23.80
2018-04-28T06:36:13.441Z,25.80
2018-04-28T06:38:40.952Z,25.80
2018-04-28T06:41:08.533Z,25.90
2018-04-28T06:43:36.049Z,26.00
2018-04-28T06:46:03.961Z,27.90
2018-04-28T06:48:31.566Z,27.90
2018-04-28T06:50:59.083Z,28.20
2018-04-28T06:53:26.557Z,28.10
2018-04-28T06:55:54.077Z,28.40
2018-04-28T06:58:21.609Z,27.70
2018-04-28T07:00:49.161Z,27.30
2018-04-28T07:03:16.661Z,27.30
2018-04-28T07:05:44.389Z,28.40
2018-04-28T07:08:11.891Z,28.70
2018-04-28T07:10:39.456Z,29.10
2018-04-28T07:13:06.941Z,29.60
2018-04-28T07:15:34.506Z,29.90
2018-04-28T07:18:02.037Z,30.00
2018-04-28T07:20:29.540Z,30.50
2018-04-28T07:22:57.074Z,30.80
2018-04-28T07:25:24.590Z,31.20
2018-04-28T07:27:52.505Z,31.30
2018-04-28T07:30:20.021Z,31.30
2018-04-28T07:32:47.933Z,31.30
2018-04-28T07:35:15.492Z,31.30
2018-04-28T07:37:43.005Z,31.60
2018-04-28T07:40:10.917Z,30.10
2018-04-28T07:42:38.445Z,30.10
2018-04-28T07:45:05.962Z,29.70
2018-04-28T07:47:33.493Z,29.70
2018-04-28T07:50:01.022Z,29.10
2018-04-28T07:52:28.568Z,29.20
2018-04-28T07:54:56.073Z,29.00
2018-04-28T07:57:23.605Z,30.50
2018-04-28T07:59:51.113Z,31.40
2018-04-28T08:02:19.029Z,32.70
2018-04-28T08:04:46.537Z,32.70
2018-04-28T08:07:14.213Z,33.00
2018-04-28T08:09:41.709Z,31.90
2018-04-28T08:12:09.217Z,31.10
2018-04-28T08:14:36.785Z,31.30
2018-04-28T08:17:04.289Z,31.30
2018-04-28T08:19:31.812Z,31.20
2018-04-28T08:21:59.338Z,31.60
2018-04-28T08:24:27.017Z,32.20
2018-04-28T08:26:54.526Z,32.80
2018-04-28T08:29:22.453Z,33.90
2018-04-28T08:31:49.957Z,33.90
2018-04-28T08:34:17.498Z,34.00
2018-04-28T08:36:45.001Z,34.40
2018-04-28T08:39:12.615Z,34.50
2018-04-28T08:41:40.120Z,33.40
2018-04-28T08:44:07.662Z,31.20
2018-04-28T08:46:35.160Z,31.10
2018-04-28T08:49:02.759Z,31.60
2018-04-28T08:51:30.272Z,32.60
2018-04-28T08:53:57.885Z,32.90
2018-04-28T08:56:25.393Z,31.60
2018-04-28T08:58:52.917Z,30.10
2018-04-28T09:01:21.389Z,30.00
2018-04-28T09:03:48.986Z,29.80
2018-04-28T09:06:16.603Z,30.40
2018-04-28T09:08:44.261Z,31.80
2018-04-28T09:11:11.784Z,32.10
2018-04-28T09:13:39.686Z,30.40
2018-04-28T09:16:07.246Z,30.40
2018-04-28T09:18:34.745Z,30.50
2018-04-28T09:21:02.677Z,31.80
2018-04-28T09:23:30.171Z,31.80
2018-04-28T09:25:57.696Z,32.80
2018-04-28T09:28:25.312Z,32.80
2018-04-28T09:30:52.846Z,32.80
2018-04-28T09:33:20.744Z,33.10
2018-04-28T09:35:48.272Z,33.10
2018-04-28T09:38:15.779Z,33.30
2018-04-28T09:40:43.320Z,33.50
2018-04-28T09:43:10.826Z,33.10
2018-04-28T09:45:38.350Z,30.90
2018-04-28T09:48:05.864Z,31.10
2018-04-28T09:50:33.393Z,31.00
2018-04-28T09:53:00.892Z,31.20
2018-04-28T09:55:28.417Z,31.50
2018-04-28T09:58:07.780Z,31.10
2018-04-28T10:00:35.308Z,31.10
2018-04-28T10:03:05.707Z,29.00
2018-04-28T10:05:33.264Z,28.50
2018-04-28T10:08:00.782Z,28.70
2018-04-28T10:10:28.302Z,29.60
2018-04-28T10:12:55.837Z,30.20
2018-04-28T10:15:23.333Z,30.90
2018-04-28T10:17:50.854Z,31.30
2018-04-28T10:20:18.830Z,29.00
2018-04-28T10:22:46.372Z,29.00
2018-04-28T10:25:14.279Z,28.40
2018-04-28T10:27:41.807Z,28.20
2018-04-28T10:30:09.317Z,28.40
2018-04-28T10:32:36.859Z,29.20
2018-04-28T10:35:04.363Z,29.60
2018-04-28T10:37:31.973Z,30.10
2018-04-28T10:39:59.481Z,29.40
2018-04-28T10:42:27.000Z,29.60
2018-04-28T10:44:54.621Z,29.20
2018-04-28T10:47:22.180Z,28.40
2018-04-28T10:49:49.681Z,28.50
2018-04-28T10:52:17.302Z,28.30
2018-04-28T10:54:44.838Z,27.80
2018-04-28T10:57:12.365Z,27.00
2018-04-28T10:59:40.262Z,25.30
2018-04-28T11:02:07.793Z,25.30
2018-04-28T11:04:35.309Z,24.40
2018-04-28T11:07:02.809Z,23.80
2018-04-28T11:09:30.392Z,23.50
2018-04-28T11:11:58.052Z,23.10
2018-04-28T11:14:25.584Z,23.10
2018-04-28T11:16:53.085Z,22.90
2018-04-28T11:19:20.613Z,22.50
2018-04-28T11:21:48.259Z,22.40
2018-04-28T11:24:15.935Z,22.40
2018-04-28T11:26:43.596Z,22.50
2018-04-28T11:29:11.113Z,22.50
2018-04-28T11:31:39.021Z,22.50
2018-04-28T11:34:06.541Z,22.50
2018-04-28T11:36:34.041Z,22.60
2018-04-28T11:39:01.562Z,22.60
2018-04-28T11:41:29.101Z,22.60
2018-04-28T11:43:56.641Z,22.50
2018-04-28T11:46:24.233Z,22.50
2018-04-28T11:48:51.768Z,22.40
2018-04-28T11:51:19.666Z,22.30
2018-04-28T11:53:47.198Z,22.30
2018-04-28T11:56:14.696Z,22.30
2018-04-28T11:58:42.209Z,22.30
2018-04-28T12:01:09.760Z,22.30
2018-04-28T12:03:37.270Z,22.20
2018-04-28T12:06:04.795Z,22.20
2018-04-28T12:08:32.288Z,22.30
2018-04-28T12:54:40.522Z,22.20
2018-04-28T12:57:08.041Z,22.20
2018-04-28T12:59:35.549Z,22.30
2018-04-28T13:02:03.161Z,22.30
2018-04-28T13:04:30.666Z,22.40
2018-04-28T13:06:58.185Z,22.50
2018-04-28T13:09:25.683Z,22.60
2018-04-28T13:11:53.381Z,22.70
2018-04-28T13:14:20.897Z,22.70
2018-04-28T13:16:48.417Z,22.80
2018-04-28T13:19:15.953Z,22.80
2018-04-28T13:21:43.461Z,22.80
2018-04-28T13:24:11.069Z,22.90
2018-04-28T13:26:38.583Z,22.80
2018-04-28T13:29:06.580Z,23.10
2018-04-28T13:31:34.022Z,23.10
2018-04-28T13:34:01.715Z,23.00
2018-04-28T13:36:29.236Z,22.90
2018-04-28T13:38:56.802Z,22.90
2018-04-28T13:41:24.319Z,23.00
2018-04-28T13:43:51.849Z,22.90
2018-04-28T13:46:19.344Z,22.90
2018-04-28T13:48:46.881Z,22.80
2018-04-28T13:51:14.505Z,22.80
2018-04-28T13:53:42.107Z,22.70
2018-04-28T13:56:09.681Z,22.70
2018-04-28T13:58:37.133Z,22.60
2018-04-28T14:01:05.053Z,22.70
2018-04-28T14:03:32.569Z,22.70
2018-04-28T14:06:00.247Z,22.80
2018-04-28T14:08:27.769Z,22.80
2018-04-28T14:10:55.687Z,22.80
2018-04-28T14:13:23.323Z,22.80
2018-04-28T14:15:50.878Z,22.80
2018-04-28T14:18:18.377Z,22.70
2018-04-28T14:20:45.924Z,22.70
2018-04-28T14:23:13.426Z,22.70
2018-04-28T14:25:40.953Z,22.80
2018-04-28T14:28:08.469Z,22.80
2018-04-28T14:30:36.001Z,22.90
2018-04-28T14:33:03.520Z,22.80
2018-04-28T14:35:31.046Z,22.70
2018-04-28T14:37:58.549Z,22.60
2018-04-28T14:40:26.065Z,22.70
2018-04-28T14:42:53.565Z,22.70
2018-04-28T14:45:21.097Z,22.70
2018-04-28T14:47:48.608Z,22.70
2018-04-28T14:50:16.130Z,22.80
2018-04-28T14:52:44.180Z,22.80
2018-04-28T14:55:11.660Z,22.80
2018-04-28T14:57:39.192Z,22.80
2018-04-28T15:00:06.717Z,22.80
2018-04-28T15:02:34.234Z,22.80
2018-04-28T15:05:01.745Z,22.70
2018-04-28T15:07:29.265Z,22.70
2018-04-28T15:09:56.818Z,22.80
2018-04-28T15:12:24.692Z,22.80
2018-04-28T15:14:52.247Z,22.80
2018-04-28T15:17:19.769Z,22.70
2018-04-28T15:19:47.289Z,22.80
2018-04-28T15:22:14.990Z,22.80
2018-04-28T15:24:42.501Z,22.80
2018-04-28T15:27:10.037Z,22.80
2018-04-28T15:29:37.543Z,22.80
2018-04-28T15:32:05.070Z,22.80
2018-04-28T15:34:32.563Z,22.90
2018-04-28T15:37:00.114Z,22.90
2018-04-28T15:39:27.610Z,22.80
2018-04-28T15:41:55.257Z,22.80
2018-04-28T15:44:22.765Z,22.70
2018-04-28T15:46:50.676Z,22.80
2018-04-28T15:49:18.433Z,22.80
2018-04-28T15:51:45.957Z,22.80
2018-04-28T15:54:13.473Z,22.70
2018-04-28T15:56:40.975Z,22.70
2018-04-28T15:59:08.493Z,22.70
2018-04-28T16:01:35.997Z,22.70
2018-04-28T16:04:03.508Z,22.60
2018-04-28T16:06:31.020Z,22.50
2018-04-28T16:08:58.556Z,22.50
2018-04-28T16:11:26.061Z,22.50
2018-04-28T16:13:53.590Z,22.50
2018-04-28T16:16:21.104Z,22.40
2018-04-28T16:18:49.015Z,22.40
2018-04-28T16:21:16.665Z,22.40
2018-04-28T16:23:44.168Z,22.30
2018-04-28T16:26:11.695Z,22.20
2018-04-28T16:28:39.209Z,22.10
2018-04-28T16:31:06.773Z,22.10
2018-04-28T16:33:34.363Z,22.10
2018-04-28T16:36:01.898Z,22.10
2018-04-28T16:38:29.400Z,22.10
2018-04-28T16:40:56.937Z,22.00
2018-04-28T16:43:24.440Z,21.90
2018-04-28T16:45:51.968Z,21.90
2018-04-28T16:48:19.483Z,21.80
2018-04-28T16:50:47.102Z,21.80
2018-04-28T16:53:14.546Z,21.80
2018-04-28T16:55:42.465Z,21.70
2018-04-28T16:58:09.981Z,21.70
2018-04-28T17:00:37.509Z,21.80
2018-04-28T17:03:05.121Z,21.70
2018-04-28T17:05:32.777Z,21.60
2018-04-28T17:08:00.422Z,21.60
2018-04-28T17:10:28.083Z,21.60
2018-04-28T17:12:55.592Z,21.50
2018-04-28T17:15:23.196Z,21.50
2018-04-28T17:17:54.507Z,21.40
2018-04-28T17:20:22.149Z,21.40
2018-04-28T17:22:49.670Z,21.40
2018-04-28T17:25:17.365Z,21.30
2018-04-28T17:27:44.888Z,21.30
2018-04-28T17:30:12.405Z,21.30
2018-04-28T17:32:39.934Z,21.20
2018-04-28T17:35:07.470Z,21.10
2018-04-28T17:37:35.215Z,21.00
2018-04-28T17:40:02.717Z,20.90
2018-04-28T17:42:30.308Z,20.90
2018-04-28T17:44:57.805Z,20.80
2018-04-28T17:47:25.331Z,20.70
2018-04-28T17:49:52.833Z,20.70
2018-04-28T17:52:20.547Z,20.60
2018-04-28T17:54:48.210Z,20.50
2018-04-28T17:57:15.738Z,20.40
2018-04-28T17:59:43.241Z,20.20
2018-04-28T18:02:10.761Z,20.10
2018-04-28T18:04:38.291Z,20.00
2018-04-28T18:07:06.189Z,19.80
2018-04-28T18:09:33.717Z,19.90
2018-04-28T18:12:01.233Z,19.80
2018-04-28T18:14:28.885Z,19.70
2018-04-28T18:16:56.389Z,19.70
2018-04-28T18:19:24.317Z,19.60
2018-04-28T18:21:51.821Z,19.60
2018-04-28T18:24:19.505Z,19.50
2018-04-28T18:26:47.145Z,19.40
2018-04-28T18:29:14.665Z,19.30
2018-04-28T18:31:42.571Z,19.10
2018-04-28T18:34:10.089Z,19.10
2018-04-28T18:36:37.791Z,19.00
2018-04-28T18:39:05.309Z,19.00
2018-04-28T18:41:33.206Z,18.80
2018-04-28T18:44:00.733Z,18.80
2018-04-28T18:46:28.286Z,18.70
2018-04-28T18:48:55.888Z,18.70
2018-04-28T18:51:23.508Z,18.60
2018-04-28T18:53:51.043Z,18.60
2018-04-28T18:56:18.543Z,18.60
2018-04-28T18:58:46.089Z,18.60
2018-04-28T19:01:13.592Z,18.50
2018-04-28T19:03:41.093Z,18.50
2018-04-28T19:06:08.616Z,18.40
2018-04-28T19:08:36.128Z,18.40
2018-04-28T19:11:03.667Z,18.30
2018-04-28T19:13:31.173Z,18.20
2018-04-28T19:15:58.881Z,18.20
2018-04-28T19:18:26.397Z,18.10
2018-04-28T19:20:53.943Z,18.00
2018-04-28T19:23:21.872Z,18.00
2018-04-28T19:25:49.429Z,18.00
2018-04-28T19:28:16.929Z,17.90
2018-04-28T19:30:44.452Z,17.90
2018-04-28T19:33:11.969Z,17.80
2018-04-28T19:35:39.901Z,17.60
2018-04-28T19:38:07.594Z,17.60
2018-04-28T19:40:35.121Z,17.50
2018-04-28T19:43:02.626Z,17.50
2018-04-28T19:45:30.187Z,17.40
2018-04-28T19:47:57.836Z,17.30
2018-04-28T19:50:25.363Z,17.30
2018-04-28T19:52:52.865Z,17.20
2018-04-28T19:55:20.381Z,17.10
2018-04-28T19:57:47.885Z,17.00
2018-04-28T20:00:15.484Z,17.00
2018-04-28T20:02:42.928Z,17.00
2018-04-28T20:05:10.824Z,16.90
2018-04-28T20:07:38.362Z,16.90
2018-04-28T20:10:06.271Z,16.90
2018-04-28T20:12:33.808Z,16.90
2018-04-28T20:15:01.308Z,16.80
2018-04-28T20:17:28.828Z,16.70
2018-04-28T20:19:56.384Z,16.70
2018-04-28T20:25:41.273Z,16.60
2018-04-28T20:28:08.801Z,16.50
2018-04-28T20:30:36.310Z,16.60
2018-04-28T20:33:03.849Z,16.50
2018-04-28T20:35:31.357Z,16.50
2018-04-28T20:37:59.286Z,16.40
2018-04-28T20:40:26.785Z,16.40
2018-04-28T20:42:54.492Z,16.40
2018-04-28T20:45:21.990Z,16.30
2018-04-28T20:47:49.929Z,16.10
2018-04-28T20:50:17.432Z,16.10
2018-04-28T20:52:44.973Z,16.10
2018-04-28T20:55:12.477Z,16.00
2018-04-28T20:57:40.009Z,15.90
2018-04-28T21:00:07.526Z,15.90
2018-04-28T21:02:35.465Z,15.90
2018-04-28T21:05:02.970Z,15.90
2018-04-28T21:07:30.489Z,15.80
2018-04-28T21:09:58.009Z,15.70
2018-04-28T21:12:25.541Z,15.70
2018-04-28T21:14:53.056Z,15.60
2018-04-28T21:17:20.562Z,15.60
2018-04-28T21:19:48.082Z,15.50
2018-04-28T21:22:15.589Z,15.50
2018-04-28T21:24:43.119Z,15.40
2018-04-28T21:27:10.621Z,15.40
2018-04-28T21:29:38.142Z,15.30
2018-04-28T21:32:05.799Z,15.20
2018-04-28T21:34:33.333Z,15.20
2018-04-28T21:37:00.851Z,15.10
2018-04-28T21:39:28.373Z,15.00
2018-04-28T21:41:55.877Z,14.90
2018-04-28T21:44:23.802Z,15.00
2018-04-28T21:46:51.301Z,15.00
2018-04-28T21:49:18.848Z,15.10
2018-04-28T21:51:46.861Z,15.10
2018-04-28T21:54:14.382Z,15.10
2018-04-28T21:56:42.388Z,15.10
2018-04-28T21:59:09.911Z,15.10
2018-04-28T22:01:37.820Z,15.00
2018-04-28T22:04:05.565Z,15.00
2018-04-28T22:06:33.072Z,15.00
2018-04-28T22:09:00.662Z,15.00
2018-04-28T22:11:28.169Z,14.90
2018-04-28T22:13:55.678Z,14.90
2018-04-28T22:16:23.210Z,14.80
2018-04-28T22:18:50.888Z,14.80
2018-04-28T22:21:18.401Z,14.70
2018-04-28T22:23:45.901Z,14.70
2018-04-28T22:26:13.457Z,14.70
2018-04-28T22:28:41.026Z,14.60
2018-04-28T22:31:08.568Z,14.60
2018-04-28T22:33:36.230Z,14.50
2018-04-28T22:36:03.761Z,14.50
2018-04-28T22:38:31.659Z,14.40
2018-04-28T22:40:59.223Z,14.40
2018-04-28T22:43:26.726Z,14.30
2018-04-28T22:45:54.243Z,14.20
2018-04-28T22:48:21.753Z,14.30
2018-04-28T22:50:49.425Z,14.20
2018-04-28T22:53:16.929Z,14.10
2018-04-28T22:55:44.445Z,14.00
2018-04-28T22:58:12.013Z,14.00
2018-04-28T23:00:41.477Z,14.00
2018-04-28T23:03:08.974Z,13.90
2018-04-28T23:05:36.469Z,13.80
2018-04-28T23:08:04.061Z,13.70
2018-04-28T23:10:31.573Z,13.70
2018-04-28T23:12:59.096Z,13.70
2018-04-28T23:15:26.629Z,13.70
2018-04-28T23:17:54.162Z,13.70
2018-04-28T23:20:22.059Z,13.70
2018-04-28T23:22:49.619Z,13.70
2018-04-28T23:25:17.273Z,13.70
2018-04-28T23:27:44.985Z,13.60
2018-04-28T23:30:12.493Z,13.50
2018-04-28T23:32:40.026Z,13.30
2018-04-28T23:35:07.516Z,12.90
2018-04-28T23:37:35.139Z,12.80
2018-04-28T23:40:02.594Z,12.70
2018-04-28T23:42:30.117Z,12.70
2018-04-28T23:44:57.613Z,12.60
2018-04-28T23:47:25.137Z,12.60
2018-04-28T23:49:52.641Z,12.60
2018-04-28T23:52:20.193Z,12.60
2018-04-28T23:54:47.694Z,12.60
2018-04-28T23:57:15.211Z,12.60
2018-04-28T23:59:42.849Z,12.60
